Aérodrome :
LOGIN :

S'inscrire | Disclaimer

   EN    FR    IT 

 










Légende :    VFR   VFR Marginal   IFR   IFR Intensif   IFR Très Intensif
Visi : 
Plafond : 
>= 8 km
>= 3000ft
5 à 8 km
1000 à 3000 ft
1500m à 5 km
500 à 1000 ft
800 à 1500m
200 à 500 ft
< 800m
< 200 ft
Symboles :   Orages  Brouillard  Fortes neiges  Fortes précipitations  Vent > 20 kt
SIGMETs :   Divers  Orages  Givrage  Turbulence  Onde Orograph.  Cendres Volcan.







- Altitude de l'aérodrome : 297 ft
- Code IATA : UIP
- Voir les cartes d'approche


LFRQ - Quimper Pluguffan

DERNIER METAR :
  • 101900Z AUTO 00000KT CAVOK 06/05 Q1030 NOSIG

METARs EXPIRÉS :
  • 101830Z AUTO 00000KT 9000 NSC 06/05 Q1030 NOSIG
  • 101800Z AUTO 00000KT CAVOK 07/06 Q1030 NOSIG
  • 101730Z AUTO 00000KT CAVOK 07/06 Q1030 NOSIG
  • 101700Z AUTO 00000KT 9999 FEW034 SCT130 08/06 Q1030 NOSIG
  • 101630Z AUTO 29002KT 9999 FEW034 08/05 Q1030 NOSIG

TAF TAF LFRQ
Valide du 10 à 18h jusqu'au 11 à 18h UTC


101700Z 1018/1118 29002KT 9999 FEW035
PROB40
TEMPO 1103/1107 3000 BR BKN006
BECMG 1107/1109 12011KT 9999 BKN030
Pas de NOTAMs connus pour ce terrain.



MET'MAP, la Météo Aéronautique d'un coup d'oeil ! - Copyright ORBIFLY Décembre 2007 - Disclaimer

ORBIFLY MET'MAP TEAM :

Programmation & Développement : Alexandra Zaïnal
Conception & Développement : Baudouin d'Aumeries
Co-Programmation & Développement : Marc-Olivier Méhu
Soutien technique & logistique : Manuel Goepfert

Contact : metmap@orbifly.com




SOURCES & CREDITS :

   NOAA